Time;durP1;ratioP1;P1;durP2;ratioP2;P2;SDS_P1;SDS_P2;PMS_P1;PMS_P2;Temp;Humidity;BMP_temperature;BMP_pressure;BME280_temperature;BME280_humidity;BME280_pressure;Samples;Min_cycle;Max_cycle;Signal;HPM_P1;HPM_P2
2023/11/18 00:00:28;;;;;;;10.07;6.00;;;;;;;3.96;99.50;101560.34;5027834;28;20207;-73
2023/11/18 00:02:55;;;;;;;11.23;6.20;;;;;;;3.98;99.63;101558.25;5024579;28;20206;-74
2023/11/18 00:05:23;;;;;;;9.73;6.60;;;;;;;4.01;99.15;101562.19;5025537;28;20239;-74
2023/11/18 00:07:50;;;;;;;9.87;6.30;;;;;;;4.04;99.34;101566.91;5026434;28;20200;-74
2023/11/18 00:10:16;;;;;;;10.73;6.70;;;;;;;4.07;99.52;101571.59;5024644;28;20207;-73
2023/11/18 00:12:43;;;;;;;10.13;6.73;;;;;;;4.09;99.52;101577.38;5027475;28;20227;-74
2023/11/18 00:15:11;;;;;;;10.73;7.20;;;;;;;4.10;99.46;101574.47;5024068;28;20228;-73
2023/11/18 00:17:39;;;;;;;10.43;6.70;;;;;;;4.14;99.42;101578.16;5025491;28;20197;-72
2023/11/18 00:20:09;;;;;;;10.10;6.83;;;;;;;4.16;99.58;101586.53;5027226;28;20192;-74
2023/11/18 00:22:35;;;;;;;11.37;6.73;;;;;;;4.19;99.30;101593.09;5027680;28;20295;-74
2023/11/18 00:25:04;;;;;;;11.37;7.37;;;;;;;4.21;99.69;101604.84;5026989;28;20741;-73
2023/11/18 00:27:31;;;;;;;11.97;7.60;;;;;;;4.23;99.58;101601.94;5037654;28;20222;-73
2023/11/18 00:29:57;;;;;;;8.93;6.43;;;;;;;4.25;99.22;101608.50;5022613;28;20295;-73
2023/11/18 00:32:24;;;;;;;9.07;6.00;;;;;;;4.27;99.11;101611.66;5038248;28;20223;-74
2023/11/18 00:34:51;;;;;;;9.57;6.17;;;;;;;4.29;98.87;101606.16;5025123;28;20240;-73
2023/11/18 00:37:19;;;;;;;11.13;6.97;;;;;;;4.31;98.89;101619.75;5026712;28;20659;-72
2023/11/18 00:39:45;;;;;;;9.53;6.23;;;;;;;4.33;98.43;101621.06;5043176;28;20213;-73
2023/11/18 00:42:11;;;;;;;8.77;6.37;;;;;;;4.35;98.64;101615.59;5029791;28;20201;-73
2023/11/18 00:44:38;;;;;;;9.47;6.87;;;;;;;4.36;98.57;101619.78;5041774;28;20601;-73
2023/11/18 00:47:04;;;;;;;10.77;6.83;;;;;;;4.37;98.55;101623.94;5023239;28;20657;-73
2023/11/18 00:49:31;;;;;;;10.97;6.90;;;;;;;4.37;98.19;101629.97;5023225;28;20224;-74
2023/11/18 00:51:58;;;;;;;9.20;6.20;;;;;;;4.38;98.31;101626.31;5043074;28;20522;-73
2023/11/18 00:54:25;;;;;;;9.87;6.83;;;;;;;4.41;98.48;101636.25;5020949;28;20236;-73
2023/11/18 00:56:52;;;;;;;8.87;6.23;;;;;;;4.41;97.68;101627.63;5026854;28;20199;-72
2023/11/18 00:59:20;;;;;;;9.80;6.50;;;;;;;4.42;98.17;101631.81;5028778;28;20210;-74
2023/11/18 01:01:46;;;;;;;9.90;6.20;;;;;;;4.42;98.13;101642.25;5038764;28;20215;-72
2023/11/18 01:04:12;;;;;;;10.53;6.60;;;;;;;4.42;97.51;101644.88;5036547;28;20219;-74
2023/11/18 01:06:39;;;;;;;10.07;6.37;;;;;;;4.41;97.56;101644.09;5039573;28;20292;-73
2023/11/18 01:09:07;;;;;;;9.67;6.00;;;;;;;4.43;97.28;101654.28;5023140;28;20196;-74
2023/11/18 01:11:33;;;;;;;10.00;6.30;;;;;;;4.43;97.78;101656.91;5036820;28;20247;-74
2023/11/18 01:14:00;;;;;;;10.40;6.77;;;;;;;4.43;97.69;101651.69;5034191;28;20288;-74
2023/11/18 01:16:28;;;;;;;12.37;6.70;;;;;;;4.42;97.73;101647.50;5028336;28;20574;-73
2023/11/18 01:18:57;;;;;;;9.87;6.33;;;;;;;4.43;97.84;101659.53;5040141;28;20210;-71
2023/11/18 01:21:23;;;;;;;10.73;6.50;;;;;;;4.42;97.80;101655.34;5016652;28;20328;-74
2023/11/18 01:23:50;;;;;;;9.20;6.10;;;;;;;4.40;97.08;101652.97;5038857;28;20201;-74
2023/11/18 01:26:18;;;;;;;9.10;6.07;;;;;;;4.40;96.73;101652.22;5020906;28;20622;-74
2023/11/18 01:28:45;;;;;;;8.83;5.97;;;;;;;4.39;96.75;101650.63;5039949;28;20271;-73
2023/11/18 01:31:14;;;;;;;9.97;6.50;;;;;;;4.40;96.90;101660.06;5022512;28;20200;-74
2023/11/18 01:33:41;;;;;;;9.30;5.67;;;;;;;4.38;96.18;101659.50;5044360;28;20222;-74
2023/11/18 01:36:10;;;;;;;7.97;5.90;;;;;;;4.38;96.62;101657.69;5033443;28;20327;-71
2023/11/18 01:38:37;;;;;;;9.90;5.60;;;;;;;4.38;96.16;101669.97;5040244;28;20199;-73
2023/11/18 01:41:04;;;;;;;10.97;6.27;;;;;;;4.38;96.37;101676.00;5031542;28;20242;-74
2023/11/18 01:43:35;;;;;;;10.60;6.37;;;;;;;4.37;96.01;101677.03;5019506;28;20203;-73
2023/11/18 01:46:04;;;;;;;11.20;6.57;;;;;;;4.39;96.02;101674.16;5019275;28;20253;-74
2023/11/18 01:48:33;;;;;;;8.90;6.00;;;;;;;4.40;96.04;101678.34;5022441;28;20208;-73
2023/11/18 01:51:00;;;;;;;8.27;5.87;;;;;;;4.38;96.30;101681.22;5036697;28;20192;-73
2023/11/18 01:53:27;;;;;;;9.73;6.40;;;;;;;4.38;96.55;101689.06;5032067;28;20282;-74
2023/11/18 01:55:54;;;;;;;10.60;6.73;;;;;;;4.40;96.60;101686.19;5042171;28;20220;-73
2023/11/18 01:58:22;;;;;;;8.87;5.93;;;;;;;4.42;96.44;101686.72;5028438;28;20218;-72
2023/11/18 02:00:52;;;;;;;10.17;6.60;;;;;;;4.41;96.97;101687.78;5029136;28;20196;-73
2023/11/18 02:03:20;;;;;;;11.57;6.93;;;;;;;4.43;96.31;101691.69;5028896;28;20679;-74
2023/11/18 02:05:47;;;;;;;9.90;6.77;;;;;;;4.44;96.87;101687.25;5041659;28;20217;-73
2023/11/18 02:08:14;;;;;;;10.47;7.00;;;;;;;4.43;96.63;101696.13;5026645;28;20692;-73
2023/11/18 02:10:50;;;;;;;11.77;7.37;;;;;;;4.43;96.77;101696.94;5029126;28;20689;-73
2023/11/18 02:13:25;;;;;;;12.90;7.20;;;;;;;4.44;96.36;101702.94;5026055;28;20201;-74
2023/11/18 02:15:56;;;;;;;11.17;7.13;;;;;;;4.43;97.05;101704.78;5027007;28;20214;-73
2023/11/18 02:18:26;;;;;;;9.63;6.40;;;;;;;4.44;96.64;101706.34;5023720;28;20639;-73
2023/11/18 02:20:54;;;;;;;11.77;6.80;;;;;;;4.43;96.79;101709.22;5026806;28;20664;-73
2023/11/18 02:23:21;;;;;;;11.70;7.07;;;;;;;4.44;96.95;101700.31;5024775;28;20276;-73
2023/11/18 02:25:50;;;;;;;9.90;6.40;;;;;;;4.43;97.27;101702.16;5023749;28;20208;-73
2023/11/18 02:28:18;;;;;;;8.60;6.20;;;;;;;4.44;97.12;101703.72;5023322;28;20271;-73
2023/11/18 02:30:45;;;;;;;10.33;6.07;;;;;;;4.45;97.12;101709.75;5027777;28;20195;-73
2023/11/18 02:33:18;;;;;;;9.00;6.00;;;;;;;4.44;97.00;101701.09;5038409;28;20200;-73
2023/11/18 02:35:49;;;;;;;9.00;5.87;;;;;;;4.44;96.76;101698.50;5023944;28;20701;-73
2023/11/18 02:38:19;;;;;;;10.23;5.80;;;;;;;4.42;97.48;101707.63;5041084;28;20196;-74
2023/11/18 02:40:48;;;;;;;10.70;6.67;;;;;;;4.44;96.94;101710.78;5024898;28;20226;-72
2023/11/18 02:43:17;;;;;;;12.73;7.30;;;;;;;4.43;97.48;101711.81;5027258;28;20704;-72
2023/11/18 02:45:44;;;;;;;9.00;6.60;;;;;;;4.42;97.22;101705.03;5022977;28;20220;-74
2023/11/18 02:48:11;;;;;;;10.37;6.63;;;;;;;4.41;96.85;101719.91;5023584;28;20228;-73
2023/11/18 02:50:38;;;;;;;10.20;6.37;;;;;;;4.40;97.26;101715.72;5040697;28;20202;-71
2023/11/18 02:53:05;;;;;;;10.73;6.03;;;;;;;4.39;96.93;101715.97;5038236;28;20764;-74
2023/11/18 02:55:31;;;;;;;12.50;6.90;;;;;;;4.36;97.35;101717.28;5029283;28;20216;-73
2023/11/18 02:57:57;;;;;;;8.63;5.63;;;;;;;4.36;97.31;101721.75;5039776;28;20217;-73
2023/11/18 03:00:25;;;;;;;10.00;6.70;;;;;;;4.37;97.27;101723.31;5021936;28;20258;-75
2023/11/18 03:02:52;;;;;;;9.43;6.27;;;;;;;4.35;97.52;101709.72;5025113;28;20192;-74
2023/11/18 03:05:18;;;;;;;13.50;7.03;;;;;;;4.35;97.75;101717.56;5043307;28;20213;-73
2023/11/18 03:07:47;;;;;;;10.43;6.70;;;;;;;4.33;97.57;101725.66;5028304;28;20541;-73
2023/11/18 03:10:20;;;;;;;9.80;5.87;;;;;;;4.30;97.88;101717.53;5026061;28;20229;-73
2023/11/18 03:12:47;;;;;;;12.80;6.63;;;;;;;4.27;97.78;101718.84;5043093;28;20199;-74
2023/11/18 03:15:15;;;;;;;9.03;6.13;;;;;;;4.23;97.52;101709.94;5029788;28;20219;-73
2023/11/18 03:17:44;;;;;;;9.60;6.03;;;;;;;4.18;97.68;101714.34;5030003;28;20202;-73
2023/11/18 03:20:14;;;;;;;11.00;6.70;;;;;;;4.11;97.72;101713.78;5026783;28;20188;-72
2023/11/18 03:22:41;;;;;;;12.60;6.90;;;;;;;4.07;97.85;101703.06;5023660;28;20692;-73
2023/11/18 03:25:08;;;;;;;10.53;6.63;;;;;;;4.04;97.85;101711.41;5026474;28;20220;-74
2023/11/18 03:27:34;;;;;;;10.90;6.40;;;;;;;4.02;97.85;101715.31;5025929;28;20254;-74
2023/11/18 03:30:01;;;;;;;10.93;6.37;;;;;;;3.98;98.22;101714.25;5025077;28;20205;-73
2023/11/18 03:32:27;;;;;;;9.80;6.70;;;;;;;3.95;98.54;101718.16;5043718;28;20208;-73
2023/11/18 03:35:00;;;;;;;11.67;7.17;;;;;;;3.95;98.77;101717.38;5025963;28;20218;-71
2023/11/18 03:37:27;;;;;;;9.83;6.23;;;;;;;3.95;99.22;101720.75;5025353;28;20204;-74
2023/11/18 03:39:53;;;;;;;12.00;7.00;;;;;;;3.95;99.23;101725.22;5027473;28;20197;-74
2023/11/18 03:42:19;;;;;;;8.50;6.10;;;;;;;3.95;99.62;101718.16;5025539;28;20200;-73
2023/11/18 03:44:47;;;;;;;10.27;6.53;;;;;;;3.97;99.96;101721.31;5028904;28;20281;-73
2023/11/18 03:47:14;;;;;;;10.57;6.33;;;;;;;4.01;100.00;101722.38;5041861;28;20578;-73
2023/11/18 03:49:40;;;;;;;10.90;6.67;;;;;;;4.02;100.00;101721.34;5027472;28;20204;-73
2023/11/18 03:52:09;;;;;;;12.67;7.03;;;;;;;4.04;100.00;101727.09;5021920;28;20208;-73
2023/11/18 03:54:35;;;;;;;10.10;6.33;;;;;;;4.07;100.00;101731.81;5032580;28;20221;-73
2023/11/18 03:57:03;;;;;;;9.77;6.37;;;;;;;4.08;100.00;101729.97;5033426;28;20689;-73
2023/11/18 03:59:29;;;;;;;13.17;8.30;;;;;;;4.10;100.00;101735.75;5021397;28;20258;-73
2023/11/18 04:01:56;;;;;;;12.47;7.83;;;;;;;4.13;100.00;101737.84;5031739;28;20206;-73
2023/11/18 04:04:22;;;;;;;11.20;7.23;;;;;;;4.15;100.00;101746.22;5023572;28;20224;-73
2023/11/18 04:06:49;;;;;;;12.13;7.03;;;;;;;4.16;100.00;101737.34;5039833;28;20211;-73
2023/11/18 04:09:16;;;;;;;10.90;7.07;;;;;;;4.17;100.00;101742.31;5030132;28;20192;-73
2023/11/18 04:11:44;;;;;;;11.33;6.90;;;;;;;4.18;100.00;101746.50;5038994;28;20193;-73
2023/11/18 04:14:13;;;;;;;12.73;7.57;;;;;;;4.20;100.00;101743.63;5038749;28;20203;-73
2023/11/18 04:16:39;;;;;;;12.27;7.27;;;;;;;4.21;100.00;101743.41;5032662;28;20297;-73
2023/11/18 04:19:06;;;;;;;10.77;7.30;;;;;;;4.23;100.00;101732.66;5037509;28;20211;-74
2023/11/18 04:21:32;;;;;;;12.87;7.63;;;;;;;4.24;100.00;101740.25;5028610;28;20205;-73
2023/11/18 04:23:59;;;;;;;13.23;8.13;;;;;;;4.25;100.00;101739.19;5021953;28;20207;-74
2023/11/18 04:26:26;;;;;;;13.07;7.80;;;;;;;4.25;100.00;101741.81;5019792;28;20201;-74
2023/11/18 04:28:54;;;;;;;13.67;7.77;;;;;;;4.27;100.00;101744.97;5026971;28;20269;-73
2023/11/18 04:31:21;;;;;;;11.20;7.90;;;;;;;4.29;100.00;101744.72;5037288;28;20197;-74
2023/11/18 04:33:47;;;;;;;13.13;7.83;;;;;;;4.29;100.00;101744.72;5024935;28;20258;-73
2023/11/18 04:36:16;;;;;;;14.00;7.77;;;;;;;4.31;100.00;101750.47;5022636;28;20224;-74
2023/11/18 04:38:44;;;;;;;11.30;7.03;;;;;;;4.33;100.00;101753.63;5022910;28;20276;-73
2023/11/18 04:41:13;;;;;;;15.80;8.10;;;;;;;4.33;100.00;101757.03;5020671;28;20670;-71
2023/11/18 04:43:41;;;;;;;11.43;7.37;;;;;;;4.35;100.00;101762.78;5020098;28;20196;-74
2023/11/18 04:46:08;;;;;;;14.13;7.43;;;;;;;4.36;100.00;101755.75;5021809;28;20212;-73
2023/11/18 04:48:35;;;;;;;11.87;7.77;;;;;;;4.36;99.97;101761.72;5024700;28;20200;-74
2023/11/18 04:51:01;;;;;;;12.67;6.73;;;;;;;4.37;99.93;101776.41;5024417;28;20207;-74
2023/11/18 04:53:27;;;;;;;11.50;6.90;;;;;;;4.37;99.97;101771.19;5022409;28;20751;-73
2023/11/18 04:55:54;;;;;;;12.53;7.43;;;;;;;4.38;99.57;101774.56;5041287;28;20600;-74
2023/11/18 04:58:21;;;;;;;13.00;7.00;;;;;;;4.39;99.53;101783.97;5023425;28;20214;-74
2023/11/18 05:00:49;;;;;;;11.70;6.80;;;;;;;4.40;99.97;101783.72;5024857;28;20201;-74
2023/11/18 05:03:17;;;;;;;12.37;7.57;;;;;;;4.41;99.53;101779.28;5025170;28;20200;-73
2023/11/18 05:05:46;;;;;;;11.00;7.07;;;;;;;4.41;99.34;101784.53;5018154;28;20208;-74
2023/11/18 05:08:19;;;;;;;12.90;7.37;;;;;;;4.42;99.23;101789.50;5022274;28;20204;-73
2023/11/18 05:10:48;;;;;;;11.63;7.23;;;;;;;4.44;99.26;101784.00;5019955;28;20204;-74
2023/11/18 05:13:18;;;;;;;15.07;7.20;;;;;;;4.45;99.05;101786.34;5023153;28;20589;-71
2023/11/18 05:15:46;;;;;;;15.23;7.07;;;;;;;4.46;99.22;101787.16;5022241;28;20212;-74
2023/11/18 05:18:14;;;;;;;11.80;7.43;;;;;;;4.45;99.10;101786.34;5024431;28;20201;-73
2023/11/18 05:20:41;;;;;;;12.47;7.77;;;;;;;4.45;99.01;101786.34;5019612;28;20243;-74
2023/11/18 05:23:09;;;;;;;11.60;6.73;;;;;;;4.47;98.76;101780.88;5021037;28;20206;-73
2023/11/18 05:25:36;;;;;;;11.30;6.80;;;;;;;4.47;98.77;101788.72;5016138;28;20244;-74
2023/11/18 05:28:08;;;;;;;12.13;7.47;;;;;;;4.48;98.54;101785.06;5025013;28;20279;-74
2023/11/18 05:30:34;;;;;;;10.67;7.00;;;;;;;4.48;98.77;101790.28;5025575;28;20430;-72
2023/11/18 05:33:03;;;;;;;12.90;7.20;;;;;;;4.49;98.83;101792.66;5022626;28;20680;-74
2023/11/18 05:35:31;;;;;;;11.17;7.30;;;;;;;4.48;98.34;101788.47;5024570;28;20247;-73
2023/11/18 05:37:58;;;;;;;11.47;7.20;;;;;;;4.49;98.25;101794.47;5020301;28;20741;-74
2023/11/18 05:40:25;;;;;;;13.10;7.83;;;;;;;4.49;98.35;101797.88;5023282;28;20689;-73
2023/11/18 05:42:53;;;;;;;11.60;7.53;;;;;;;4.48;98.54;101798.94;5022854;28;20211;-74
2023/11/18 05:45:28;;;;;;;10.43;6.93;;;;;;;4.49;98.58;101790.03;5020223;28;20212;-71
2023/11/18 05:47:55;;;;;;;12.17;7.37;;;;;;;4.50;98.62;101781.16;5022903;28;20196;-74
2023/11/18 05:50:24;;;;;;;12.17;7.47;;;;;;;4.47;98.61;101781.69;5017796;28;20205;-73
2023/11/18 05:52:52;;;;;;;12.73;7.87;;;;;;;4.48;98.47;101785.88;5023022;28;20211;-74
2023/11/18 05:55:18;;;;;;;13.53;7.00;;;;;;;4.48;98.24;101788.47;5024351;28;20221;-74
2023/11/18 05:57:45;;;;;;;12.27;7.43;;;;;;;4.48;98.51;101796.31;5025641;28;20213;-74
2023/11/18 06:00:15;;;;;;;12.53;7.77;;;;;;;4.48;98.68;101791.09;5027713;28;20215;-74
2023/11/18 06:02:41;;;;;;;11.17;7.27;;;;;;;4.49;98.13;101794.47;5032494;28;20254;-74
2023/11/18 06:05:09;;;;;;;11.27;7.47;;;;;;;4.47;98.25;101786.09;5022465;28;20231;-74
2023/11/18 06:07:35;;;;;;;11.33;7.20;;;;;;;4.48;98.69;101790.28;5024045;28;20557;-73
2023/11/18 06:10:05;;;;;;;13.27;7.17;;;;;;;4.47;98.39;101799.19;5025887;28;20200;-74
2023/11/18 06:12:31;;;;;;;11.67;7.13;;;;;;;4.47;98.36;101805.22;5027013;28;20231;-74
2023/11/18 06:14:58;;;;;;;12.83;7.37;;;;;;;4.47;98.34;101800.00;5027437;28;20224;-74
2023/11/18 06:17:24;;;;;;;14.10;8.33;;;;;;;4.47;98.34;101800.00;5025941;28;20247;-73
2023/11/18 06:19:51;;;;;;;10.70;7.10;;;;;;;4.49;98.48;101805.72;5022034;28;20204;-74
2023/11/18 06:22:19;;;;;;;11.80;7.17;;;;;;;4.49;98.28;101800.50;5019432;28;20200;-74
2023/11/18 06:24:46;;;;;;;11.63;7.20;;;;;;;4.48;98.19;101801.56;5021251;28;20704;-73
2023/11/18 06:27:15;;;;;;;10.47;6.83;;;;;;;4.48;98.50;101801.56;5026960;28;20206;-73
2023/11/18 06:29:42;;;;;;;12.97;7.37;;;;;;;4.48;98.14;101796.31;5025693;28;20194;-74
2023/11/18 06:32:08;;;;;;;11.40;7.53;;;;;;;4.48;98.14;101804.16;5028917;28;20192;-74
2023/11/18 06:34:34;;;;;;;14.27;7.90;;;;;;;4.48;98.25;101806.78;5026716;28;20223;-74
2023/11/18 06:37:01;;;;;;;12.63;7.10;;;;;;;4.49;98.49;101807.56;5016799;28;20215;-73
2023/11/18 06:39:29;;;;;;;12.13;7.33;;;;;;;4.47;98.25;101813.06;5028002;28;20590;-73
2023/11/18 06:41:56;;;;;;;12.03;7.50;;;;;;;4.45;97.94;101807.28;5024943;28;20251;-74
2023/11/18 06:44:24;;;;;;;10.73;6.70;;;;;;;4.46;98.06;101811.47;5028508;28;20247;-72
2023/11/18 06:46:51;;;;;;;11.50;7.00;;;;;;;4.45;97.64;101809.91;5023730;28;20192;-74
2023/11/18 06:49:19;;;;;;;13.97;7.20;;;;;;;4.47;97.47;101818.28;5024308;28;20212;-74
2023/11/18 06:51:45;;;;;;;11.93;7.27;;;;;;;4.48;98.00;101816.44;5027410;28;20201;-73
2023/11/18 06:54:13;;;;;;;12.10;7.70;;;;;;;4.46;97.58;101818.53;5029926;28;20204;-73
2023/11/18 06:56:42;;;;;;;13.43;7.00;;;;;;;4.48;98.41;101821.69;5033728;28;20227;-74
2023/11/18 06:59:10;;;;;;;11.13;6.53;;;;;;;4.46;97.97;101821.16;5038327;28;20207;-74
2023/11/18 07:01:37;;;;;;;11.27;6.97;;;;;;;4.45;97.69;101819.59;5028451;28;20208;-74
2023/11/18 07:04:08;;;;;;;11.90;7.73;;;;;;;4.45;97.42;101835.28;5029874;28;20213;-74
2023/11/18 07:06:37;;;;;;;11.93;6.97;;;;;;;4.47;97.75;101833.19;5029952;28;20200;-73
2023/11/18 07:09:13;;;;;;;11.17;6.90;;;;;;;4.48;97.56;101839.97;5029187;28;20223;-73
2023/11/18 07:11:40;;;;;;;10.80;6.83;;;;;;;4.48;97.49;101842.59;5026251;28;20196;-74
2023/11/18 07:14:09;;;;;;;11.30;7.40;;;;;;;4.48;97.93;101851.25;5023092;28;20208;-74
2023/11/18 07:16:38;;;;;;;10.70;6.67;;;;;;;4.48;97.70;101853.06;5025540;28;20630;-74
2023/11/18 07:19:04;;;;;;;10.73;6.70;;;;;;;4.47;97.74;101852.28;5029306;28;20200;-74
2023/11/18 07:21:31;;;;;;;10.43;6.17;;;;;;;4.48;97.72;101846.00;5029584;28;20720;-74
2023/11/18 07:23:57;;;;;;;11.13;6.63;;;;;;;4.50;98.05;101851.00;5026765;28;20200;-74
2023/11/18 07:26:24;;;;;;;11.27;6.63;;;;;;;4.50;97.40;101856.22;5027615;28;20252;-74
2023/11/18 07:28:51;;;;;;;11.10;6.97;;;;;;;4.49;97.58;101857.25;5021683;28;20204;-74
2023/11/18 07:31:18;;;;;;;9.97;6.77;;;;;;;4.51;97.54;101865.66;5030919;28;20608;-72
2023/11/18 07:33:48;;;;;;;11.93;6.70;;;;;;;4.51;97.89;101866.41;5021596;28;20235;-74
2023/11/18 07:36:15;;;;;;;10.63;6.37;;;;;;;4.52;97.35;101870.59;5040158;28;20213;-74
2023/11/18 07:38:42;;;;;;;11.20;6.93;;;;;;;4.53;97.18;101874.00;5030045;28;20680;-74
2023/11/18 07:41:09;;;;;;;11.37;6.37;;;;;;;4.55;97.38;101875.34;5023326;28;20198;-72
2023/11/18 07:43:36;;;;;;;13.03;6.23;;;;;;;4.55;96.83;101877.94;5025922;28;20541;-74
2023/11/18 07:46:03;;;;;;;10.87;6.83;;;;;;;4.55;97.17;101874.53;5026462;28;20227;-73
2023/11/18 07:48:31;;;;;;;12.60;7.37;;;;;;;4.56;96.97;101882.13;5027747;28;20211;-74
2023/11/18 07:50:58;;;;;;;11.07;6.87;;;;;;;4.59;97.38;101883.44;5029305;28;20225;-73
2023/11/18 07:53:25;;;;;;;12.07;6.97;;;;;;;4.57;97.10;101881.09;5042740;28;20307;-74
2023/11/18 07:55:52;;;;;;;10.50;6.40;;;;;;;4.58;96.66;101882.69;5036647;28;20266;-74
2023/11/18 07:58:20;;;;;;;10.33;6.70;;;;;;;4.60;97.02;101883.22;5040563;28;20775;-76
2023/11/18 08:00:46;;;;;;;11.67;6.53;;;;;;;4.61;96.78;101889.25;5026223;28;20188;-73
2023/11/18 08:03:13;;;;;;;9.57;6.27;;;;;;;4.62;96.61;101894.19;5028720;28;20577;-73
2023/11/18 08:05:40;;;;;;;10.63;6.60;;;;;;;4.65;96.61;101890.28;5022921;28;20214;-74
2023/11/18 08:08:08;;;;;;;11.27;6.67;;;;;;;4.65;96.81;101887.66;5022144;28;20670;-74
2023/11/18 08:10:37;;;;;;;10.73;6.90;;;;;;;4.66;96.44;101889.25;5024044;28;20288;-74
2023/11/18 08:13:04;;;;;;;11.83;7.47;;;;;;;4.67;96.54;101909.91;5029103;28;20701;-72
2023/11/18 08:15:31;;;;;;;12.90;7.17;;;;;;;4.66;96.22;101910.19;5038526;28;20228;-74
2023/11/18 08:17:57;;;;;;;12.03;6.73;;;;;;;4.66;95.85;101908.34;5021925;28;20218;-73
2023/11/18 08:20:25;;;;;;;11.00;7.10;;;;;;;4.68;96.40;101916.75;5025050;28;20200;-73
2023/11/18 08:22:51;;;;;;;10.00;6.47;;;;;;;4.68;96.35;101916.75;5024533;28;20665;-73
2023/11/18 08:25:19;;;;;;;11.80;7.00;;;;;;;4.71;95.94;101923.31;5021538;28;20216;-74
2023/11/18 08:27:46;;;;;;;20.43;11.70;;;;;;;4.70;96.42;101921.72;5027621;28;20202;-74
2023/11/18 08:30:13;;;;;;;15.40;9.83;;;;;;;4.71;95.92;101931.16;5028982;28;20199;-74
2023/11/18 08:32:43;;;;;;;22.97;12.57;;;;;;;4.69;95.89;101927.97;5023630;28;20196;-72
2023/11/18 08:35:10;;;;;;;13.30;8.60;;;;;;;4.71;95.95;101934.53;5024193;28;20227;-74
2023/11/18 08:37:38;;;;;;;21.17;13.63;;;;;;;4.71;95.92;101931.16;5026578;28;20215;-74
2023/11/18 08:40:06;;;;;;;26.87;14.33;;;;;;;4.74;95.33;101941.09;5028009;28;20252;-71
2023/11/18 08:42:34;;;;;;;24.03;16.10;;;;;;;4.72;95.48;101941.34;5024374;28;20266;-74
2023/11/18 08:45:00;;;;;;;13.07;9.17;;;;;;;4.73;95.36;101940.31;5022586;28;20228;-74
2023/11/18 08:47:28;;;;;;;10.70;7.17;;;;;;;4.74;95.42;101938.47;5022055;28;20275;-73
2023/11/18 08:49:55;;;;;;;11.80;7.67;;;;;;;4.74;95.76;101944.50;5026520;28;20223;-74
2023/11/18 08:52:21;;;;;;;10.93;7.77;;;;;;;4.75;95.40;101950.50;5024677;28;20203;-74
2023/11/18 08:57:34;;;;;;;14.93;10.17;;;;;;;4.79;96.12;101951.59;5025105;28;20226;-74
2023/11/18 09:00:08;;;;;;;14.43;9.10;;;;;;;4.79;95.91;101944.53;5024979;28;20752;-73
2023/11/18 09:02:37;;;;;;;13.30;7.93;;;;;;;4.83;95.66;101952.66;5024445;28;20274;-73
2023/11/18 09:05:12;;;;;;;12.47;7.47;;;;;;;4.85;95.82;101951.38;5025989;28;20592;-73
2023/11/18 09:07:39;;;;;;;11.83;6.23;;;;;;;4.85;95.03;101959.22;5024224;28;20235;-73
2023/11/18 09:10:06;;;;;;;10.57;6.53;;;;;;;4.89;94.99;101960.28;5025479;28;20199;-73
2023/11/18 09:12:34;;;;;;;9.43;6.63;;;;;;;4.91;94.66;101952.97;5019427;28;20199;-72
2023/11/18 09:15:03;;;;;;;11.77;6.30;;;;;;;4.93;94.53;101950.88;5024591;28;20219;-73
2023/11/18 09:17:30;;;;;;;8.33;5.53;;;;;;;4.99;94.10;101952.50;5025341;28;20211;-73
2023/11/18 09:19:56;;;;;;;10.30;6.53;;;;;;;5.03;94.74;101955.38;5025922;28;20694;-73
2023/11/18 09:22:24;;;;;;;9.20;6.00;;;;;;;5.07;94.24;101949.38;5023621;28;20392;-73
2023/11/18 09:24:50;;;;;;;10.73;7.03;;;;;;;5.11;93.92;101960.13;5020852;28;20254;-74
2023/11/18 09:27:17;;;;;;;15.00;9.63;;;;;;;5.16;93.51;101970.63;5019985;28;20204;-72
2023/11/18 09:29:44;;;;;;;16.30;11.27;;;;;;;5.18;93.43;101969.31;5022596;28;20205;-73
2023/11/18 09:32:12;;;;;;;15.20;10.67;;;;;;;5.22;93.42;101962.53;5023992;28;20203;-73
2023/11/18 09:34:41;;;;;;;12.83;8.13;;;;;;;5.26;92.65;101975.91;5022888;28;20224;-72
2023/11/18 09:37:09;;;;;;;10.70;6.80;;;;;;;5.30;92.81;101971.72;5023072;28;20211;-73
2023/11/18 09:39:38;;;;;;;8.07;5.70;;;;;;;5.34;92.56;101975.41;5021315;28;20261;-73
2023/11/18 09:42:09;;;;;;;8.43;5.97;;;;;;;5.39;91.81;101978.81;5021918;28;20518;-73
2023/11/18 09:44:39;;;;;;;9.17;5.90;;;;;;;5.43;91.14;101987.75;5019482;28;20215;-73
2023/11/18 09:47:10;;;;;;;7.30;4.97;;;;;;;5.46;90.81;101976.78;5020240;28;20598;-75
2023/11/18 09:49:43;;;;;;;7.33;5.10;;;;;;;5.47;90.07;101974.94;5017114;28;20210;-72
2023/11/18 09:52:18;;;;;;;7.53;4.97;;;;;;;5.52;89.83;101978.34;5018898;28;20215;-73
2023/11/18 09:55:02;;;;;;;8.27;4.47;;;;;;;5.56;89.73;101973.38;5021354;28;20212;-73
2023/11/18 09:57:34;;;;;;;31.50;17.43;;;;;;;5.59;91.17;101975.50;5021750;28;20238;-72
2023/11/18 10:00:19;;;;;;;9.13;5.87;;;;;;;5.64;90.52;101978.13;5021068;28;20215;-73
2023/11/18 10:02:47;;;;;;;9.10;5.93;;;;;;;5.67;91.26;101978.41;5022833;28;20208;-73
2023/11/18 10:05:20;;;;;;;8.70;6.07;;;;;;;5.68;90.04;101979.16;5020384;28;20692;-73
2023/11/18 10:07:48;;;;;;;11.13;6.67;;;;;;;5.65;88.70;101983.09;5024816;28;20679;-73
2023/11/18 10:10:15;;;;;;;19.27;10.77;;;;;;;5.63;87.95;101974.72;5019194;28;20201;-73
2023/11/18 10:12:44;;;;;;;14.97;8.67;;;;;;;5.69;88.42;101980.78;5022851;28;20192;-73
2023/11/18 10:15:12;;;;;;;11.90;6.80;;;;;;;5.71;88.92;101971.59;5028878;28;20228;-74
2023/11/18 10:17:54;;;;;;;12.17;8.63;;;;;;;5.73;87.84;101973.94;5043874;28;20336;-73
2023/11/18 10:20:25;;;;;;;8.33;5.80;;;;;;;5.69;87.75;101973.69;5042866;28;20249;-73
2023/11/18 10:23:06;;;;;;;7.23;5.30;;;;;;;5.75;87.85;101983.13;5023193;28;20560;-73
2023/11/18 10:25:34;;;;;;;7.83;5.30;;;;;;;5.77;87.41;101975.81;5025627;28;20219;-73
2023/11/18 10:28:02;;;;;;;7.07;4.50;;;;;;;5.82;87.06;101980.28;5026957;28;20679;-73
2023/11/18 10:30:31;;;;;;;6.57;4.90;;;;;;;5.85;86.88;101983.16;5024500;28;20218;-73
2023/11/18 10:33:05;;;;;;;8.33;5.33;;;;;;;5.88;87.06;101980.03;5023588;28;20204;-72
2023/11/18 10:35:33;;;;;;;5.97;4.73;;;;;;;5.94;87.40;101986.06;5040663;28;20611;-73
2023/11/18 10:38:04;;;;;;;9.83;4.90;;;;;;;5.96;86.83;101979.50;5022516;28;20319;-73
2023/11/18 10:40:34;;;;;;;6.13;4.33;;;;;;;6.00;87.23;101979.81;5024309;28;20214;-73
2023/11/18 10:43:01;;;;;;;7.63;4.87;;;;;;;6.03;86.96;101977.44;5021013;28;20208;-73
2023/11/18 10:45:28;;;;;;;5.70;4.27;;;;;;;6.03;87.22;101974.81;5024132;28;20211;-72
2023/11/18 10:47:57;;;;;;;8.47;4.60;;;;;;;6.05;87.39;101974.53;5025948;28;20619;-73
2023/11/18 10:50:29;;;;;;;7.70;5.07;;;;;;;6.05;86.10;101964.84;5024374;28;20290;-73
2023/11/18 10:52:56;;;;;;;6.57;4.37;;;;;;;6.09;87.16;101958.03;5025324;28;20219;-73
2023/11/18 10:55:25;;;;;;;5.90;4.43;;;;;;;6.11;86.41;101963.03;5025583;28;20234;-73
2023/11/18 10:57:53;;;;;;;6.67;4.20;;;;;;;6.12;86.70;101962.75;5024954;28;20766;-73
2023/11/18 11:00:20;;;;;;;6.87;4.23;;;;;;;6.08;86.88;101956.47;5025466;28;20680;-73
2023/11/18 11:02:49;;;;;;;6.80;4.30;;;;;;;6.07;85.93;101959.34;5026571;28;20239;-73
2023/11/18 11:05:32;;;;;;;5.97;4.10;;;;;;;6.05;85.14;101956.19;5015084;28;20786;-73
2023/11/18 11:08:00;;;;;;;13.70;7.93;;;;;;;6.05;86.32;101958.81;5024708;28;20200;-73
2023/11/18 11:10:29;;;;;;;5.07;3.77;;;;;;;6.05;86.17;101966.66;5026347;28;21015;-73
2023/11/18 11:13:01;;;;;;;6.57;4.00;;;;;;;6.06;85.90;101958.56;5024494;28;20314;-73
2023/11/18 11:15:31;;;;;;;10.13;4.37;;;;;;;6.08;86.25;101958.31;5027215;28;20782;-74
2023/11/18 11:18:08;;;;;;;6.67;4.53;;;;;;;6.05;86.87;101964.84;5024352;28;20204;-73
2023/11/18 11:20:42;;;;;;;7.00;4.80;;;;;;;6.03;85.81;101968.78;5026128;28;20212;-73
2023/11/18 11:23:18;;;;;;;15.70;8.60;;;;;;;6.03;86.21;101966.97;5025454;28;20672;-73
2023/11/18 11:26:04;;;;;;;5.83;4.80;;;;;;;6.05;85.55;101969.28;5023402;28;20240;-73
2023/11/18 11:28:39;;;;;;;5.77;4.40;;;;;;;6.11;85.81;101969.03;5025031;28;20207;-72
2023/11/18 11:31:22;;;;;;;6.43;4.53;;;;;;;6.10;83.91;101967.47;5023092;28;20621;-73
2023/11/18 11:33:58;;;;;;;7.70;5.53;;;;;;;6.15;85.91;101961.44;5021853;28;20204;-73